Weather at Klaeng Airfield

Public forecast

Using degrees Celsius for public forecast. Weather courtesy of forecast.io.

Closest aviation weather report (METAR) to Klaeng Airfield

Closest report is U-Tapao International Airport, 36.7 nm (67.9 km) W.

2024/07/24 02:00 (retrieved 37 minutes ago)

VTBU 240200Z 23007KT 9999 FEW020 SCT100 29/26 Q1006 NOSIG

Closest aviation forecast (TAF) to Klaeng Airfield

Forecast is more than 12 hours old.

Closest forecast is Car Nicobar Air Force Base, 561.5 nm (1,039.9 km) WSW.

2024/07/23 12:00 (retrieved 15 hours ago)

TAF VOCX 230930Z 2312/2324 22010KT 6000 SCT015 BKN090 TEMPO 1215/1217 24010G20KT 5000 RA SCT015 FEW025TCU BKN090